Time;durP1;ratioP1;P1;durP2;ratioP2;P2;SDS_P1;SDS_P2;PMS_P1;PMS_P2;Temp;Humidity;BMP_temperature;BMP_pressure;BME280_temperature;BME280_humidity;BME280_pressure;Samples;Min_cycle;Max_cycle;Signal;HPM_P1;HPM_P2
2021/11/04 00:01:14;;;;;;;43.05;21.70;;;;;;;7.27;84.03;99637.90;1750756;81;25757;-71
2021/11/04 00:03:41;;;;;;;79.70;23.32;;;;;;;7.31;84.05;99637.29;1742866;81;26077;-70
2021/11/04 00:06:08;;;;;;;59.05;24.10;;;;;;;7.35;84.06;99637.55;1729885;81;27503;-72
2021/11/04 00:08:35;;;;;;;58.83;21.77;;;;;;;7.37;84.08;99633.01;1771634;79;25866;-72
2021/11/04 00:11:01;;;;;;;52.60;22.02;;;;;;;7.41;84.10;99632.80;1733095;81;26008;-71
2021/11/04 00:13:27;;;;;;;42.55;22.50;;;;;;;7.43;84.09;99630.92;1740342;80;25802;-71
2021/11/04 00:15:53;;;;;;;47.45;23.18;;;;;;;7.46;84.12;99626.78;1739739;81;25890;-71
2021/11/04 00:18:19;;;;;;;41.48;21.87;;;;;;;7.51;84.13;99628.36;1741530;81;27378;-72
2021/11/04 00:20:45;;;;;;;46.88;22.32;;;;;;;7.56;84.16;99626.34;1737764;81;25797;-72
2021/11/04 00:23:11;;;;;;;41.58;21.23;;;;;;;7.59;84.17;99619.53;1743408;81;25777;-70
2021/11/04 00:25:37;;;;;;;39.75;21.02;;;;;;;7.61;84.16;99611.86;1775758;78;26568;-70
2021/11/04 00:28:03;;;;;;;39.30;21.75;;;;;;;7.64;84.20;99624.18;1773294;79;25810;-70
2021/11/04 00:30:30;;;;;;;38.85;21.15;;;;;;;7.69;84.19;99628.83;1755698;79;27469;-70
2021/11/04 00:32:57;;;;;;;44.23;22.98;;;;;;;7.71;84.19;99628.28;1766845;79;25859;-70
2021/11/04 00:35:24;;;;;;;44.60;22.87;;;;;;;7.73;84.21;99623.27;1753531;80;25787;-71
2021/11/04 00:37:50;;;;;;;39.35;22.40;;;;;;;7.75;84.23;99622.73;1764195;79;26561;-71
2021/11/04 00:40:20;;;;;;;46.53;23.02;;;;;;;7.80;84.25;99625.17;1742626;80;26506;-70
2021/11/04 00:42:46;;;;;;;41.75;21.77;;;;;;;7.85;84.26;99619.59;1774984;78;27416;-72
2021/11/04 00:45:12;;;;;;;36.48;20.27;;;;;;;7.86;84.25;99618.17;1774216;79;25820;-71
2021/11/04 00:47:38;;;;;;;45.58;21.93;;;;;;;7.89;84.26;99616.70;1757108;79;26084;-70
2021/11/04 00:50:07;;;;;;;50.52;24.43;;;;;;;7.91;84.29;99617.48;1773019;79;25798;-70
2021/11/04 00:52:33;;;;;;;44.33;21.55;;;;;;;7.94;84.30;99617.33;1768588;79;26722;-70
2021/11/04 00:54:59;;;;;;;43.42;22.15;;;;;;;7.96;84.28;99614.13;1759387;79;28355;-70
2021/11/04 00:57:25;;;;;;;46.90;20.97;;;;;;;7.98;84.33;99612.23;1735612;80;25873;-70
2021/11/04 00:59:50;;;;;;;44.10;21.90;;;;;;;8.02;84.34;99605.81;1752005;79;26282;-70
2021/11/04 01:02:17;;;;;;;42.85;21.42;;;;;;;8.04;84.36;99613.27;1756765;79;25898;-70
2021/11/04 01:04:43;;;;;;;37.88;21.05;;;;;;;8.06;84.36;99614.06;1756302;80;25939;-70
2021/11/04 01:07:09;;;;;;;36.98;19.57;;;;;;;8.09;84.35;99615.24;1774483;79;27380;-70
2021/11/04 01:09:35;;;;;;;45.30;21.10;;;;;;;8.11;84.37;99616.50;1770562;79;25777;-70
2021/11/04 01:12:01;;;;;;;38.33;19.92;;;;;;;8.12;84.35;99615.09;1776482;79;26106;-70
2021/11/04 01:14:27;;;;;;;38.95;21.05;;;;;;;8.15;84.36;99614.08;1759583;80;26473;-70
2021/11/04 01:16:53;;;;;;;36.28;19.23;;;;;;;8.17;84.37;99606.86;1778570;79;25805;-70
2021/11/04 01:19:19;;;;;;;46.58;20.20;;;;;;;8.19;84.40;99588.09;1775438;79;27479;-70
2021/11/04 01:21:44;;;;;;;39.48;19.23;;;;;;;8.21;84.38;99583.55;1756365;79;26504;-70
2021/11/04 01:24:10;;;;;;;38.25;18.32;;;;;;;8.23;84.42;99576.33;1739236;80;25745;-70
2021/11/04 01:26:36;;;;;;;36.05;19.52;;;;;;;8.25;84.43;99561.95;1756343;80;26154;-70
2021/11/04 01:29:02;;;;;;;35.90;18.60;;;;;;;8.27;84.43;99559.20;1749109;80;25966;-70
2021/11/04 01:31:28;;;;;;;38.92;18.48;;;;;;;8.29;84.40;99557.32;1736142;80;27408;-70
2021/11/04 01:33:54;;;;;;;41.58;19.35;;;;;;;8.30;84.41;99561.72;1738319;81;25855;-70
2021/11/04 01:36:19;;;;;;;38.67;19.65;;;;;;;8.29;84.42;99567.53;1738901;81;25798;-70
2021/11/04 01:38:45;;;;;;;40.70;18.67;;;;;;;8.30;84.43;99561.25;1741547;81;25709;-70
2021/11/04 01:41:12;;;;;;;36.42;18.25;;;;;;;8.32;84.46;99553.16;1784230;78;26257;-71
2021/11/04 01:43:37;;;;;;;36.93;19.15;;;;;;;8.33;84.42;99536.23;1772661;79;27995;-70
2021/11/04 01:46:03;;;;;;;37.73;18.67;;;;;;;8.34;84.44;99533.48;1756102;80;25835;-70
2021/11/04 01:48:29;;;;;;;41.80;19.25;;;;;;;8.35;84.43;99529.01;1738589;80;25741;-70
2021/11/04 01:50:57;;;;;;;40.63;18.98;;;;;;;8.36;84.45;99520.92;1773189;79;25711;-70
2021/11/04 01:53:23;;;;;;;38.40;19.57;;;;;;;8.36;84.44;99512.05;1755529;80;25897;-70
2021/11/04 01:55:50;;;;;;;34.05;18.07;;;;;;;8.38;84.45;99507.02;1746013;80;27332;-70
2021/11/04 01:58:17;;;;;;;37.48;17.70;;;;;;;8.37;84.43;99506.63;1747360;80;25793;-71
2021/11/04 02:00:43;;;;;;;34.85;18.17;;;;;;;8.38;84.46;99504.34;1751822;80;25757;-70
2021/11/04 02:03:32;;;;;;;39.73;17.82;;;;;;;8.41;84.48;99497.98;1744233;79;25801;-70
2021/11/04 02:06:16;;;;;;;37.38;17.42;;;;;;;8.41;84.47;99489.97;1753362;80;25813;-70
2021/11/04 02:08:50;;;;;;;32.13;17.40;;;;;;;8.42;84.49;99479.69;1748730;80;27478;-70
2021/11/04 02:11:21;;;;;;;34.27;17.60;;;;;;;8.42;84.47;99478.34;1757130;79;25736;-71
2021/11/04 02:13:50;;;;;;;;;;;;;;;8.42;84.50;99469.00;1726089;81;26529;-70
2021/11/04 02:16:18;;;;;;;33.70;16.20;;;;;;;8.44;84.50;99471.11;1753289;80;26296;-71
2021/11/04 02:18:47;;;;;;;34.95;16.73;;;;;;;8.43;84.53;99474.26;1741667;80;26035;-70
2021/11/04 02:21:33;;;;;;;37.05;17.23;;;;;;;8.45;84.52;99476.84;1749570;79;28057;-70
2021/11/04 02:24:19;;;;;;;34.43;18.02;;;;;;;8.46;84.55;99470.09;1745631;80;25872;-70
2021/11/04 02:26:48;;;;;;;35.88;16.97;;;;;;;8.49;84.52;99474.87;1744357;80;25802;-70
2021/11/04 02:29:16;;;;;;;36.90;16.45;;;;;;;8.50;84.55;99474.80;1719695;80;26137;-70
2021/11/04 02:31:43;;;;;;;38.55;18.15;;;;;;;8.53;84.56;99468.42;1734798;80;25725;-70
2021/11/04 02:34:09;;;;;;;36.20;16.65;;;;;;;8.54;84.54;99450.98;1754181;80;27395;-70
2021/11/04 02:36:35;;;;;;;37.42;16.87;;;;;;;8.57;84.56;99448.62;1748221;80;26198;-71
2021/11/04 02:39:03;;;;;;;34.48;15.58;;;;;;;8.59;84.56;99456.08;1737915;80;25709;-70
2021/11/04 02:41:35;;;;;;;33.15;17.07;;;;;;;8.61;84.58;99449.70;1742743;80;25809;-70
2021/11/04 02:44:01;;;;;;;31.25;15.13;;;;;;;8.63;84.55;99447.81;1741498;79;25852;-70
2021/11/04 02:46:29;;;;;;;28.23;15.03;;;;;;;8.66;84.57;99436.97;1744992;80;27397;-70
2021/11/04 02:48:55;;;;;;;32.73;15.45;;;;;;;8.68;84.57;99449.77;1750786;80;25845;-70
2021/11/04 02:51:21;;;;;;;31.40;15.20;;;;;;;8.72;84.60;99452.66;1745890;80;25781;-70
2021/11/04 02:53:48;;;;;;;33.67;15.90;;;;;;;8.74;84.59;99448.09;1736506;80;26469;-70
2021/11/04 02:56:14;;;;;;;27.15;15.05;;;;;;;8.77;84.59;99443.92;1746904;80;25734;-70
2021/11/04 02:58:40;;;;;;;31.95;15.40;;;;;;;8.79;84.58;99432.67;1740033;80;28078;-69
2021/11/04 03:01:06;;;;;;;28.10;14.50;;;;;;;8.81;84.57;99425.91;1745448;79;25733;-70
2021/11/04 03:03:34;;;;;;;30.32;14.75;;;;;;;8.86;84.57;99428.33;1744717;80;25788;-70
2021/11/04 03:06:00;;;;;;;30.43;14.83;;;;;;;8.87;84.54;99426.04;1748887;80;25769;-70
2021/11/04 03:08:26;;;;;;;27.25;14.63;;;;;;;8.90;84.56;99429.87;1748147;80;25946;-70
2021/11/04 03:10:53;;;;;;;31.57;14.75;;;;;;;8.93;84.56;99432.38;1753303;80;27452;-70
2021/11/04 03:13:20;;;;;;;28.17;14.38;;;;;;;8.94;84.57;99426.95;1747033;80;25728;-70
2021/11/04 03:15:53;;;;;;;27.15;14.03;;;;;;;8.97;84.57;99423.23;1746705;79;25803;-70
2021/11/04 03:18:20;;;;;;;27.22;13.20;;;;;;;9.00;84.55;99413.72;1749420;80;26227;-70
2021/11/04 03:20:47;;;;;;;29.87;14.93;;;;;;;9.02;84.60;99402.47;1741958;80;25805;-71
2021/11/04 03:23:14;;;;;;;26.05;14.53;;;;;;;9.05;84.58;99398.28;1746259;80;28055;-71
2021/11/04 03:25:42;;;;;;;24.60;13.15;;;;;;;9.08;84.58;99399.44;1748821;79;25731;-70
2021/11/04 03:28:10;;;;;;;26.23;13.22;;;;;;;9.11;84.60;99396.59;1738575;80;25852;-71
2021/11/04 03:30:40;;;;;;;25.68;13.50;;;;;;;9.13;84.54;99384.48;1764449;79;26433;-70
2021/11/04 03:33:08;;;;;;;27.73;14.73;;;;;;;9.16;84.53;99381.63;1769961;79;25765;-70
2021/11/04 03:35:37;;;;;;;27.60;14.58;;;;;;;9.17;84.52;99384.69;1764913;79;27398;-71
2021/11/04 03:38:10;;;;;;;25.05;13.28;;;;;;;9.19;84.53;99382.31;1751070;80;26195;-73
2021/11/04 03:40:37;;;;;;;24.77;13.30;;;;;;;9.21;84.52;99382.22;1734194;81;25757;-71
2021/11/04 03:43:05;;;;;;;25.97;13.55;;;;;;;9.22;84.52;99382.13;1748554;79;25840;-71
2021/11/04 03:45:32;;;;;;;27.40;14.23;;;;;;;9.23;84.53;99390.55;1754332;79;25754;-71
2021/11/04 03:47:58;;;;;;;27.60;14.63;;;;;;;9.25;84.51;99389.12;1752878;80;27374;-70
2021/11/04 03:50:26;;;;;;;27.67;13.45;;;;;;;9.26;84.49;99391.70;1760274;79;25976;-71
2021/11/04 03:52:53;;;;;;;27.87;13.55;;;;;;;9.27;84.49;99398.77;1740157;80;26522;-71
2021/11/04 03:55:22;;;;;;;27.58;13.38;;;;;;;9.30;84.49;99403.08;1742251;80;26070;-72
2021/11/04 03:57:48;;;;;;;26.80;14.58;;;;;;;9.31;84.47;99395.45;1735033;81;25883;-71
2021/11/04 04:00:15;;;;;;;26.07;12.85;;;;;;;9.32;84.48;99403.38;1736390;81;28044;-71
2021/11/04 04:02:48;;;;;;;29.82;13.22;;;;;;;9.32;84.49;99403.38;1737282;81;27151;-72
2021/11/04 04:05:14;;;;;;;29.18;13.25;;;;;;;9.33;84.49;99405.58;1737612;80;26581;-71
2021/11/04 04:07:41;;;;;;;26.65;13.25;;;;;;;9.34;84.45;99405.97;1735267;81;25808;-71
2021/11/04 04:10:07;;;;;;;22.82;13.28;;;;;;;9.35;84.46;99401.00;1769470;79;25918;-71
2021/11/04 04:12:33;;;;;;;29.57;12.60;;;;;;;9.34;84.45;99393.45;1740529;80;28079;-70
2021/11/04 04:14:59;;;;;;;27.90;13.80;;;;;;;9.36;84.47;99404.06;1752390;80;26554;-71
2021/11/04 04:17:25;;;;;;;30.77;13.65;;;;;;;9.38;84.45;99404.84;1736416;81;25820;-71
2021/11/04 04:19:52;;;;;;;26.40;12.33;;;;;;;9.38;84.45;99406.17;1741700;80;25818;-71
2021/11/04 04:22:19;;;;;;;26.10;13.43;;;;;;;9.39;84.45;99407.89;1735444;81;26452;-71
2021/11/04 04:24:45;;;;;;;27.82;13.55;;;;;;;9.39;84.40;99411.91;1735258;81;28063;-72
2021/11/04 04:27:12;;;;;;;25.40;13.22;;;;;;;9.38;84.40;99407.52;1739440;81;26088;-72
2021/11/04 04:29:38;;;;;;;30.12;13.20;;;;;;;9.39;84.41;99401.21;1734309;81;25813;-70
2021/11/04 04:32:05;;;;;;;24.65;12.73;;;;;;;9.40;84.40;99402.94;1725615;81;27453;-71
2021/11/04 04:34:31;;;;;;;25.70;13.40;;;;;;;9.40;84.37;99406.47;1773483;79;25765;-71
2021/11/04 04:36:57;;;;;;;28.25;12.63;;;;;;;9.39;84.37;99403.41;1746949;80;27394;-71
2021/11/04 04:39:23;;;;;;;22.50;13.62;;;;;;;9.38;84.36;99399.02;1745581;80;25853;-71
2021/11/04 04:41:49;;;;;;;24.50;11.48;;;;;;;9.37;84.32;99398.63;1766874;79;26126;-72
2021/11/04 04:44:15;;;;;;;22.22;12.28;;;;;;;9.38;84.35;99396.81;1742784;80;25755;-71
2021/11/04 04:46:41;;;;;;;28.05;12.90;;;;;;;9.36;84.35;99392.89;1762883;79;26332;-71
2021/11/04 04:49:08;;;;;;;23.42;13.00;;;;;;;9.36;84.33;99402.25;1773614;79;27319;-70
2021/11/04 04:51:35;;;;;;;27.62;13.28;;;;;;;9.37;84.34;99399.10;1749531;80;26479;-71
2021/11/04 04:54:01;;;;;;;22.20;13.20;;;;;;;9.37;84.34;99382.58;1767420;78;26630;-71
2021/11/04 04:56:27;;;;;;;25.37;12.70;;;;;;;9.35;84.33;99383.14;1752637;80;25944;-71
2021/11/04 04:58:53;;;;;;;23.50;12.28;;;;;;;9.34;84.29;99377.41;1732476;80;25771;-71
2021/11/04 05:01:19;;;;;;;31.23;13.58;;;;;;;9.33;84.33;99356.97;1770624;78;27415;-71
2021/11/04 05:03:45;;;;;;;28.52;12.47;;;;;;;9.33;84.32;99357.45;1768811;79;25832;-71
2021/11/04 05:06:11;;;;;;;26.82;12.82;;;;;;;9.34;84.32;99365.38;1751027;80;25738;-71
2021/11/04 05:08:37;;;;;;;28.32;12.43;;;;;;;9.34;84.30;99358.70;1738360;80;25777;-71
2021/11/04 05:11:02;;;;;;;26.05;13.38;;;;;;;9.33;84.29;99351.63;1759275;80;25688;-71
2021/11/04 05:13:28;;;;;;;23.22;13.00;;;;;;;9.34;84.31;99351.15;1750631;80;27476;-71
2021/11/04 05:15:55;;;;;;;24.18;13.00;;;;;;;9.33;84.31;99342.73;1738823;80;26485;-71
2021/11/04 05:18:21;;;;;;;25.00;12.23;;;;;;;9.32;84.26;99336.53;1732550;80;25613;-72
2021/11/04 05:20:46;;;;;;;23.85;11.95;;;;;;;9.32;84.30;99336.53;1755749;79;26462;-71
2021/11/04 05:23:12;;;;;;;24.02;11.97;;;;;;;9.33;84.29;99336.91;1737161;81;26497;-71
2021/11/04 05:25:38;;;;;;;28.32;12.20;;;;;;;9.33;84.30;99323.55;1732195;81;27411;-71
2021/11/04 05:28:04;;;;;;;26.00;10.88;;;;;;;9.35;84.32;99319.44;1749972;80;27299;-71
2021/11/04 05:30:30;;;;;;;26.90;13.10;;;;;;;9.35;84.29;99320.78;1749155;80;25931;-71
2021/11/04 05:32:56;;;;;;;24.00;12.50;;;;;;;9.36;84.30;99313.14;1746638;80;25824;-71
2021/11/04 05:35:22;;;;;;;20.80;11.63;;;;;;;9.37;84.30;99314.39;1740082;81;25848;-70
2021/11/04 05:37:48;;;;;;;28.35;12.37;;;;;;;9.37;84.28;99311.72;1745785;80;27447;-70
2021/11/04 05:40:14;;;;;;;23.90;11.55;;;;;;;9.36;84.31;99301.11;1746823;80;25762;-72
2021/11/04 05:42:41;;;;;;;25.32;12.13;;;;;;;9.37;84.32;99302.83;1744543;80;27237;-73
2021/11/04 05:45:08;;;;;;;27.07;12.15;;;;;;;9.38;84.33;99296.05;1744562;80;25813;-74
2021/11/04 05:47:34;;;;;;;25.92;11.88;;;;;;;9.40;84.31;99295.97;1752999;80;25948;-71
2021/11/04 05:50:01;;;;;;;26.82;11.35;;;;;;;9.42;84.33;99298.06;1738507;80;27392;-72
2021/11/04 05:52:27;;;;;;;24.87;11.45;;;;;;;9.42;84.34;99297.59;1742615;80;25811;-73
2021/11/04 05:54:56;;;;;;;27.40;11.65;;;;;;;9.42;84.31;99294.05;1740766;80;25872;-74
2021/11/04 05:57:24;;;;;;;23.98;10.68;;;;;;;9.41;84.32;99280.30;1744728;80;26033;-71
2021/11/04 05:59:50;;;;;;;19.23;11.75;;;;;;;9.43;84.36;99281.07;1751110;80;26529;-70
2021/11/04 06:02:15;;;;;;;23.27;11.33;;;;;;;9.44;84.36;99279.64;1744111;80;27401;-73
2021/11/04 06:04:45;;;;;;;23.12;12.47;;;;;;;9.44;84.36;99279.64;1747511;80;25817;-73
2021/11/04 06:07:09;;;;;;;22.70;11.40;;;;;;;9.46;84.38;99271.52;1744660;80;25816;-70
2021/11/04 06:09:35;;;;;;;19.62;11.45;;;;;;;9.47;84.39;99270.57;1747333;80;26029;-70
2021/11/04 06:12:01;;;;;;;23.73;12.15;;;;;;;9.47;84.39;99259.88;1738843;80;25705;-71
2021/11/04 06:14:27;;;;;;;26.40;12.45;;;;;;;9.47;84.38;99257.67;1739862;80;29515;-70
2021/11/04 06:16:53;;;;;;;21.85;11.48;;;;;;;9.46;84.41;99248.79;1741690;80;25845;-72
2021/11/04 06:19:19;;;;;;;23.60;11.48;;;;;;;9.47;84.40;99246.98;1772678;78;25851;-71
2021/11/04 06:21:45;;;;;;;23.02;11.40;;;;;;;9.44;84.36;99244.02;1750427;79;25892;-70
2021/11/04 06:24:11;;;;;;;19.80;12.23;;;;;;;9.40;84.36;99237.98;1748466;80;25781;-70
2021/11/04 06:26:38;;;;;;;22.98;12.05;;;;;;;9.40;84.45;99235.31;1739680;80;27381;-69
2021/11/04 06:29:04;;;;;;;22.35;11.65;;;;;;;9.41;84.47;99237.04;1744395;80;27166;-69
2021/11/04 06:31:31;;;;;;;23.22;11.78;;;;;;;9.40;84.47;99233.12;1736033;80;25884;-70
2021/11/04 06:33:57;;;;;;;27.77;13.35;;;;;;;9.41;84.51;99241.52;1757964;80;25793;-70
2021/11/04 06:36:24;;;;;;;25.70;12.15;;;;;;;9.42;84.54;99261.48;1759442;79;25748;-70
2021/11/04 06:38:51;;;;;;;23.07;11.78;;;;;;;9.42;84.54;99259.30;1761762;79;26779;-73
2021/11/04 06:41:18;;;;;;;24.52;12.37;;;;;;;9.42;84.52;99259.30;1727463;81;25822;-73
2021/11/04 06:43:44;;;;;;;21.20;12.47;;;;;;;9.43;84.59;99250.31;1752210;80;25872;-71
2021/11/04 06:46:13;;;;;;;21.62;12.80;;;;;;;9.42;84.58;99253.47;1752685;79;26002;-71
2021/11/04 06:48:49;;;;;;;27.52;11.68;;;;;;;9.44;84.62;99253.37;1738168;80;25744;-70
2021/11/04 06:51:21;;;;;;;23.40;11.95;;;;;;;9.43;84.62;99249.84;1752749;80;26666;-69
2021/11/04 06:53:56;;;;;;;18.80;10.63;;;;;;;9.42;84.69;99248.12;1753628;79;25796;-68
2021/11/04 06:56:24;;;;;;;23.87;11.48;;;;;;;9.44;84.69;99247.55;1766392;79;25617;-69
2021/11/04 06:58:53;;;;;;;24.18;11.83;;;;;;;9.47;84.73;99242.97;1749850;79;25655;-69
2021/11/04 07:01:21;;;;;;;22.95;12.25;;;;;;;9.47;84.74;99248.31;1760335;80;25811;-69
2021/11/04 07:03:57;;;;;;;21.95;12.07;;;;;;;9.50;84.81;99246.31;1754503;79;27339;-71
2021/11/04 07:06:24;;;;;;;21.57;12.07;;;;;;;9.51;84.82;99240.01;1757136;80;26352;-71
2021/11/04 07:08:57;;;;;;;23.80;13.18;;;;;;;9.55;84.88;99227.30;1762655;79;25844;-69
2021/11/04 07:11:27;;;;;;;23.32;13.05;;;;;;;9.56;84.89;99222.34;1753929;80;25754;-71
2021/11/04 07:13:54;;;;;;;26.82;13.75;;;;;;;9.58;84.92;99215.08;1756419;80;26310;-70
2021/11/04 07:16:23;;;;;;;26.50;12.35;;;;;;;9.59;84.94;99212.79;1751917;80;27458;-69
2021/11/04 07:18:51;;;;;;;21.33;12.45;;;;;;;9.61;84.92;99209.54;1753711;80;25954;-69
2021/11/04 07:21:28;;;;;;;22.20;12.43;;;;;;;9.62;84.98;99202.76;1755646;79;25696;-69
2021/11/04 07:24:07;;;;;;;21.27;13.15;;;;;;;9.63;84.98;99196.92;1760549;80;26736;-71
2021/11/04 07:26:40;;;;;;;23.40;13.98;;;;;;;9.64;84.98;99199.98;1745532;80;25742;-69
2021/11/04 07:29:09;;;;;;;26.68;14.50;;;;;;;9.64;84.94;99175.91;1734715;80;27475;-69
2021/11/04 07:31:39;;;;;;;25.23;14.70;;;;;;;9.60;84.94;99178.39;1731112;81;26759;-71
2021/11/04 07:34:10;;;;;;;25.52;13.80;;;;;;;9.61;85.05;99184.98;1750233;79;25751;-69
2021/11/04 07:36:39;;;;;;;22.85;14.43;;;;;;;9.60;85.01;99184.60;1737567;81;26179;-70
2021/11/04 07:39:08;;;;;;;23.02;13.62;;;;;;;9.61;85.10;99176.10;1736402;80;25951;-68
2021/11/04 07:41:35;;;;;;;26.57;14.47;;;;;;;9.59;85.02;99168.65;1749810;80;27411;-68
2021/11/04 07:44:04;;;;;;;25.50;14.38;;;;;;;9.58;85.08;99169.13;1752390;80;26095;-71
2021/11/04 07:46:31;;;;;;;25.20;13.20;;;;;;;9.59;85.17;99169.98;1739147;80;26270;-70
2021/11/04 07:48:59;;;;;;;29.87;15.93;;;;;;;9.59;85.14;99160.63;1729585;82;26031;-70
2021/11/04 07:51:26;;;;;;;27.10;15.68;;;;;;;9.56;85.15;99158.14;1729301;82;25689;-70
2021/11/04 07:53:52;;;;;;;24.92;15.72;;;;;;;9.56;85.22;99155.47;1729053;82;29483;-70
2021/11/04 07:56:18;;;;;;;27.35;14.90;;;;;;;9.56;85.24;99146.11;1729484;82;25694;-72
2021/11/04 07:58:44;;;;;;;29.25;16.62;;;;;;;9.54;85.19;99139.99;1729105;82;25730;-71
2021/11/04 08:01:10;;;;;;;29.05;15.63;;;;;;;9.52;85.23;99132.55;1729491;82;25730;-69
2021/11/04 08:03:36;;;;;;;30.85;17.25;;;;;;;9.48;85.20;99141.23;1729341;82;26016;-68
2021/11/04 08:06:02;;;;;;;28.38;16.00;;;;;;;9.44;85.20;99125.86;1729873;82;27468;-68
2021/11/04 08:08:28;;;;;;;26.33;14.68;;;;;;;9.43;85.28;99120.61;1729962;82;25735;-68
2021/11/04 08:10:56;;;;;;;32.53;16.45;;;;;;;9.39;85.28;99125.29;1730014;82;25693;-68
2021/11/04 08:13:22;;;;;;;28.80;15.95;;;;;;;9.39;85.33;99127.97;1729349;82;25717;-68
2021/11/04 08:15:49;;;;;;;28.62;16.50;;;;;;;9.38;85.35;99126.73;1733595;82;25698;-69
2021/11/04 08:18:15;;;;;;;28.75;15.40;;;;;;;9.38;85.34;99125.39;1732714;82;27430;-69
2021/11/04 08:20:41;;;;;;;27.07;16.65;;;;;;;9.36;85.32;99125.48;1733442;82;25650;-69
2021/11/04 08:23:13;;;;;;;30.35;17.00;;;;;;;9.34;85.35;99119.38;1732652;82;25774;-70
2021/11/04 08:25:41;;;;;;;29.85;17.55;;;;;;;9.31;85.27;99113.36;1723133;81;25888;-69
2021/11/04 08:28:08;;;;;;;29.18;16.82;;;;;;;9.26;85.28;99100.75;1773972;79;25827;-69
2021/11/04 08:30:35;;;;;;;27.42;16.32;;;;;;;9.22;85.37;99110.78;1775861;79;27354;-68
2021/11/04 08:33:01;;;;;;;34.20;18.60;;;;;;;9.24;85.44;99095.50;1778440;78;26299;-68
2021/11/04 08:35:28;;;;;;;27.05;17.10;;;;;;;9.23;85.45;99099.13;1781027;78;26291;-69
2021/11/04 08:37:55;;;;;;;31.57;18.07;;;;;;;9.24;85.47;99091.49;1783528;79;25751;-69
2021/11/04 08:40:21;;;;;;;31.02;18.05;;;;;;;9.23;85.50;99083.56;1772641;79;26177;-69
2021/11/04 08:42:47;;;;;;;29.85;17.05;;;;;;;9.22;85.51;99068.48;1772117;78;29458;-69
2021/11/04 08:45:14;;;;;;;32.70;18.02;;;;;;;9.20;85.53;99072.59;1774687;79;26912;-68
2021/11/04 08:47:41;;;;;;;29.98;17.35;;;;;;;9.18;85.51;99074.50;1774300;78;25835;-68
2021/11/04 08:50:10;;;;;;;30.15;17.87;;;;;;;9.17;85.49;99068.77;1774311;79;26510;-68
2021/11/04 08:52:37;;;;;;;29.87;16.93;;;;;;;9.14;85.48;99061.42;1779513;79;25757;-69
2021/11/04 08:55:06;;;;;;;30.95;17.45;;;;;;;9.10;85.50;99059.42;1776501;79;27502;-68
2021/11/04 08:57:34;;;;;;;30.23;17.55;;;;;;;9.08;85.51;99055.98;1771613;79;25740;-67
2021/11/04 09:00:00;;;;;;;29.98;18.32;;;;;;;9.08;85.56;99037.27;1776873;79;26314;-69
2021/11/04 09:02:26;;;;;;;28.42;18.27;;;;;;;9.06;85.59;99017.80;1715958;81;26354;-70
2021/11/04 09:04:52;;;;;;;32.73;18.85;;;;;;;9.07;85.61;99026.20;1735857;80;25785;-71
2021/11/04 09:07:20;;;;;;;31.33;17.85;;;;;;;9.08;85.63;99023.91;1741337;80;28203;-69
2021/11/04 09:09:48;;;;;;;36.00;20.08;;;;;;;9.08;85.56;99021.23;1709851;82;25836;-69
2021/11/04 09:12:15;;;;;;;32.40;18.55;;;;;;;9.05;85.61;99015.61;1781243;78;25728;-69
2021/11/04 09:14:42;;;;;;;36.70;19.27;;;;;;;9.03;85.55;99022.86;1764635;79;25963;-70
2021/11/04 09:17:11;;;;;;;33.15;19.27;;;;;;;9.04;85.70;99029.92;1772805;78;26746;-68
2021/11/04 09:19:38;;;;;;;33.90;18.65;;;;;;;9.06;85.72;99016.47;1781756;78;27380;-68
2021/11/04 09:22:05;;;;;;;37.90;19.12;;;;;;;9.07;85.66;99020.86;1793192;79;25729;-69
2021/11/04 09:24:32;;;;;;;34.35;21.02;;;;;;;9.05;85.64;99000.91;1753566;80;25850;-69
2021/11/04 09:27:03;;;;;;;31.82;20.08;;;;;;;9.04;85.70;99003.20;1743170;80;26906;-70
2021/11/04 09:29:27;;;;;;;29.45;18.73;;;;;;;9.02;85.68;98999.77;1774548;79;25817;-72
2021/11/04 09:31:55;;;;;;;32.48;18.90;;;;;;;9.00;85.68;98985.64;1772405;78;27416;-70
2021/11/04 09:34:23;;;;;;;31.42;19.40;;;;;;;8.98;85.69;98994.71;1755339;80;26484;-70
2021/11/04 09:36:50;;;;;;;35.15;19.87;;;;;;;8.95;85.72;98982.88;1744704;80;26039;-70
2021/11/04 09:39:16;;;;;;;34.75;19.75;;;;;;;8.90;85.72;98977.83;1768265;79;25753;-70
2021/11/04 09:41:43;;;;;;;31.95;19.15;;;;;;;8.91;85.76;98963.98;1740795;81;25747;-71
2021/11/04 09:44:10;;;;;;;31.68;19.02;;;;;;;8.87;85.77;98962.47;1747171;80;28498;-71
2021/11/04 09:46:37;;;;;;;35.50;20.23;;;;;;;8.86;85.84;98966.09;1769621;78;25815;-71
2021/11/04 09:49:04;;;;;;;35.92;20.52;;;;;;;8.87;85.86;98950.44;1759724;79;26595;-71
2021/11/04 09:51:30;;;;;;;34.60;20.75;;;;;;;8.85;85.88;98949.69;1775734;78;26533;-70
2021/11/04 09:53:56;;;;;;;36.90;19.48;;;;;;;8.82;85.82;98951.21;1768489;80;25764;-69
2021/11/04 09:56:22;;;;;;;38.08;21.45;;;;;;;8.79;85.87;98946.92;1749855;79;27503;-69
2021/11/04 09:58:48;;;;;;;32.48;17.55;;;;;;;8.77;85.90;98951.02;1746357;80;25869;-69
2021/11/04 10:01:25;;;;;;;37.30;20.65;;;;;;;8.76;85.91;98933.75;1783005;79;25871;-69
2021/11/04 10:03:53;;;;;;;34.18;20.45;;;;;;;8.75;85.93;98925.36;1777021;78;25725;-70
2021/11/04 10:06:26;;;;;;;36.68;20.37;;;;;;;8.74;86.01;98914.30;1778102;79;25767;-70
2021/11/04 10:08:58;;;;;;;34.35;19.25;;;;;;;8.75;86.05;98903.99;1749360;80;28114;-69
2021/11/04 10:11:30;;;;;;;32.35;17.95;;;;;;;8.75;86.07;98890.64;1777775;78;26279;-70
2021/11/04 10:14:09;;;;;;;33.38;18.45;;;;;;;8.76;86.04;98868.31;1778053;79;25836;-69
2021/11/04 10:16:35;;;;;;;32.25;19.12;;;;;;;8.73;86.06;98870.70;1770440;79;26552;-69
2021/11/04 10:19:04;;;;;;;31.15;19.15;;;;;;;8.73;86.07;98872.03;1754586;80;26492;-69
2021/11/04 10:21:33;;;;;;;31.07;19.42;;;;;;;8.73;86.12;98854.67;1772073;79;27447;-69
2021/11/04 10:24:00;;;;;;;33.88;19.42;;;;;;;8.75;86.20;98849.23;1783072;79;25828;-70
2021/11/04 10:26:31;;;;;;;35.63;20.10;;;;;;;8.76;86.18;98841.59;1758213;80;25802;-69
2021/11/04 10:29:02;;;;;;;33.88;19.10;;;;;;;8.77;86.21;98845.98;1747846;80;33044;-69
2021/11/04 10:31:45;;;;;;;43.00;23.57;;;;;;;8.76;86.25;98830.44;1761541;79;26173;-71
2021/11/04 10:34:27;;;;;;;30.12;18.77;;;;;;;8.79;86.37;98836.05;1754341;80;27477;-69
2021/11/04 10:36:56;;;;;;;34.30;19.48;;;;;;;8.79;86.32;98831.57;1758026;79;26256;-71
2021/11/04 10:39:27;;;;;;;38.75;19.57;;;;;;;8.82;86.37;98819.83;1733405;80;25935;-70
2021/11/04 10:41:56;;;;;;;34.58;18.50;;;;;;;8.84;86.41;98823.73;1752900;79;25905;-71
2021/11/04 10:44:23;;;;;;;35.17;20.08;;;;;;;8.87;86.36;98814.19;1756051;79;25813;-69
2021/11/04 10:46:54;;;;;;;33.38;19.52;;;;;;;8.89;86.43;98824.30;1753512;79;27876;-72
2021/11/04 10:49:23;;;;;;;39.73;20.75;;;;;;;8.93;86.52;98817.80;1748266;79;26681;-69
2021/11/04 10:52:05;;;;;;;37.05;20.60;;;;;;;8.96;86.51;98815.77;1759311;79;26107;-68
2021/11/04 10:54:48;;;;;;;42.08;22.98;;;;;;;9.00;86.57;98816.43;1753308;79;25768;-67
2021/11/04 10:57:39;;;;;;;37.38;21.40;;;;;;;9.00;86.56;98813.76;1763021;79;25827;-68
2021/11/04 11:00:20;;;;;;;36.38;21.33;;;;;;;9.03;86.58;98813.55;1761396;79;33135;-68
2021/11/04 11:03:11;;;;;;;40.03;21.27;;;;;;;9.03;86.62;98808.21;1753397;79;26543;-67
2021/11/04 11:05:41;;;;;;;;;;;;;;;9.07;86.71;98801.70;1762776;80;25797;-67
2021/11/04 11:08:11;;;;;;;31.87;18.00;;;;;;;9.07;86.72;98800.37;1755414;80;25796;-68
2021/11/04 11:10:39;;;;;;;49.60;24.37;;;;;;;9.09;86.81;98795.78;1763689;79;25764;-68
2021/11/04 11:13:07;;;;;;;37.60;19.87;;;;;;;9.11;86.81;98781.35;1753805;80;28405;-69
2021/11/04 11:15:37;;;;;;;34.45;19.90;;;;;;;9.16;86.82;98785.05;1743930;79;25804;-70
2021/11/04 11:18:06;;;;;;;56.88;27.22;;;;;;;9.21;86.84;98784.74;1763392;79;26478;-69
2021/11/04 11:20:44;;;;;;;29.27;18.73;;;;;;;9.24;86.88;98767.16;1764845;79;25994;-67
2021/11/04 11:23:25;;;;;;;33.85;19.87;;;;;;;9.27;86.93;98771.82;1772335;79;25825;-70
2021/11/04 11:25:56;;;;;;;;;;;;;;;9.30;86.90;98760.06;1734425;80;27441;-70
2021/11/04 11:28:33;;;;;;;43.13;23.07;;;;;;;9.31;86.90;98763.11;1724209;80;25937;-70
2021/11/04 11:31:18;;;;;;;50.92;26.93;;;;;;;9.31;86.95;98731.88;1749133;79;25742;-69